Terminal Aerodrome Forecast
Issued by NWS Springfield, MO

Home | Current Version | Previous Version | Text Only | Print | Product List | Glossary On
Versions: 1 2 3 4 5 6 7 8 9 10 11 12 13 14 15
000
FTUS43 KSGF 271700
TAFSGF
TAF
KSGF 271728Z 2718/2818 36006KT P6SM SCT025 BKN040
     FM272100 36009KT P6SM FEW040
     FM280100 VRB04KT P6SM SKC
     FM281000 18003KT 4SM BR SKC
     FM281400 22006KT P6SM SCT030=

USA.gov is the U.S. government's official web portal to all federal, state and local government web resources and services.